createdAt,value
2024-03-04T00:00:52.146Z,96.42
2024-03-04T00:01:52.136Z,96.56
2024-03-04T00:02:52.098Z,96.98
2024-03-04T00:03:52.056Z,96.77
2024-03-04T00:04:52.125Z,97.08
2024-03-04T00:05:52.028Z,97.50
2024-03-04T00:06:52.078Z,97.64
2024-03-04T00:07:52.024Z,97.75
2024-03-04T00:08:52.043Z,97.96
2024-03-04T00:09:52.020Z,98.37
2024-03-04T00:10:52.009Z,98.47
2024-03-04T00:11:51.969Z,98.16
2024-03-04T00:12:51.969Z,97.75
2024-03-04T00:13:51.983Z,97.02
2024-03-04T00:14:51.950Z,96.72
2024-03-04T00:15:51.938Z,96.41
2024-03-04T00:16:51.943Z,97.23
2024-03-04T00:17:51.945Z,98.16
2024-03-04T00:18:51.949Z,98.88
2024-03-04T00:19:51.885Z,99.30
2024-03-04T00:20:51.883Z,99.19
2024-03-04T00:21:51.869Z,99.09
2024-03-04T00:22:51.948Z,98.88
2024-03-04T00:23:51.900Z,98.78
2024-03-04T00:24:51.848Z,98.68
2024-03-04T00:25:51.825Z,98.68
2024-03-04T00:26:51.824Z,98.88
2024-03-04T00:27:51.824Z,99.04
2024-03-04T00:28:51.809Z,98.68
2024-03-04T00:29:51.781Z,98.72
2024-03-04T00:30:51.779Z,98.83
2024-03-04T00:31:51.762Z,98.83
2024-03-04T00:32:51.795Z,98.72
2024-03-04T00:33:51.759Z,99.14
2024-03-04T00:34:51.739Z,99.34
2024-03-04T00:35:51.727Z,99.65
2024-03-04T00:36:51.736Z,99.80
2024-03-04T00:37:51.786Z,99.65
2024-03-04T00:38:51.698Z,99.14
2024-03-04T00:39:51.673Z,98.41
2024-03-04T00:40:51.673Z,98.10
2024-03-04T00:41:51.695Z,98.21
2024-03-04T00:42:51.655Z,98.31
2024-03-04T00:43:51.640Z,98.66
2024-03-04T00:44:51.631Z,98.97
2024-03-04T00:45:51.615Z,99.29
2024-03-04T00:46:51.653Z,99.49
2024-03-04T00:47:51.634Z,99.80
2024-03-04T00:48:51.595Z,99.99
2024-03-04T00:49:51.581Z,99.99
2024-03-04T00:50:51.593Z,99.99
2024-03-04T00:51:51.586Z,99.99
2024-03-04T00:52:51.558Z,99.99
2024-03-04T00:53:51.533Z,99.99
2024-03-04T00:54:51.537Z,99.99
2024-03-04T00:55:51.533Z,99.99
2024-03-04T00:56:51.516Z,99.99
2024-03-04T00:57:51.500Z,99.85
2024-03-04T00:58:51.491Z,99.70
2024-03-04T00:59:51.488Z,99.60
2024-03-04T01:00:51.526Z,99.08
2024-03-04T01:01:51.473Z,98.77
2024-03-04T01:02:51.453Z,98.77
2024-03-04T01:03:51.461Z,98.66
2024-03-04T01:04:51.539Z,98.30
2024-03-04T01:05:51.430Z,97.99
2024-03-04T01:06:51.408Z,98.50
2024-03-04T01:07:51.384Z,99.02
2024-03-04T01:08:51.386Z,99.43
2024-03-04T01:09:51.404Z,99.58
2024-03-04T01:10:51.748Z,99.69
2024-03-04T01:11:51.340Z,99.79
2024-03-04T01:12:51.337Z,99.99
2024-03-04T01:13:51.329Z,99.99
2024-03-04T01:14:51.692Z,99.99
2024-03-04T01:15:51.298Z,99.99
2024-03-04T01:16:51.328Z,99.99
2024-03-04T01:17:51.280Z,99.95
2024-03-04T01:18:51.275Z,99.54
2024-03-04T01:19:51.297Z,99.58
2024-03-04T01:20:51.254Z,99.99
2024-03-04T01:21:51.237Z,99.99
2024-03-04T01:22:51.232Z,99.99
2024-03-04T01:23:51.227Z,99.99
2024-03-04T01:24:51.454Z,99.99
2024-03-04T01:25:51.190Z,99.99
2024-03-04T01:26:51.189Z,99.90
2024-03-04T01:27:51.224Z,99.99
2024-03-04T01:28:51.184Z,99.99
2024-03-04T01:29:51.150Z,99.99
2024-03-04T01:30:51.146Z,99.99
2024-03-04T01:31:51.142Z,99.99
2024-03-04T01:32:51.197Z,99.99
2024-03-04T01:33:51.130Z,99.99
2024-03-04T01:34:51.107Z,99.99
2024-03-04T01:35:51.084Z,99.99
2024-03-04T01:36:51.085Z,99.99
2024-03-04T01:37:51.082Z,99.99
2024-03-04T01:38:51.068Z,99.99
2024-03-04T01:39:51.050Z,99.99
2024-03-04T01:40:51.058Z,99.99
2024-03-04T01:41:51.034Z,99.99
2024-03-04T01:42:51.026Z,99.99
2024-03-04T01:43:51.008Z,99.99
2024-03-04T01:44:50.992Z,99.99
2024-03-04T01:45:50.984Z,99.99
2024-03-04T01:46:50.976Z,99.99
2024-03-04T01:47:50.990Z,99.99
2024-03-04T01:48:50.958Z,99.99
2024-03-04T01:49:50.957Z,99.99
2024-03-04T01:50:50.928Z,99.99
2024-03-04T01:51:50.945Z,99.99
2024-03-04T01:52:50.921Z,99.27
2024-03-04T01:53:50.898Z,98.91
2024-03-04T01:54:50.881Z,98.60
2024-03-04T01:55:50.877Z,98.18
2024-03-04T01:56:50.872Z,98.28
2024-03-04T01:57:50.867Z,98.70
2024-03-04T01:58:50.844Z,99.52
2024-03-04T01:59:50.856Z,99.99
2024-03-04T02:00:50.937Z,99.99
2024-03-04T02:01:50.953Z,99.99
2024-03-04T02:02:50.811Z,99.99
2024-03-04T02:03:50.794Z,99.99
2024-03-04T02:04:50.847Z,99.99
2024-03-04T02:05:50.797Z,99.99
2024-03-04T02:06:50.757Z,99.99
2024-03-04T02:07:50.752Z,99.99
2024-03-04T02:08:50.738Z,99.99
2024-03-04T02:09:50.727Z,99.99
2024-03-04T02:10:50.891Z,99.99
2024-03-04T02:11:50.709Z,99.99
2024-03-04T02:12:50.694Z,99.99
2024-03-04T02:13:50.689Z,99.99
2024-03-04T02:14:50.668Z,99.99
2024-03-04T02:15:50.679Z,99.99
2024-03-04T02:16:50.666Z,99.99
2024-03-04T02:17:50.679Z,99.47
2024-03-04T02:18:50.640Z,99.31
2024-03-04T02:19:50.650Z,99.26
2024-03-04T02:20:50.619Z,99.26
2024-03-04T02:21:50.602Z,98.95
2024-03-04T02:22:50.587Z,99.21
2024-03-04T02:23:50.581Z,99.10
2024-03-04T02:24:50.594Z,99.10
2024-03-04T02:25:50.559Z,99.31
2024-03-04T02:26:50.552Z,99.93
2024-03-04T02:27:50.554Z,99.99
2024-03-04T02:28:50.525Z,99.99
2024-03-04T02:29:50.552Z,99.99
2024-03-04T02:30:50.501Z,99.99
2024-03-04T02:31:50.538Z,99.99
2024-03-04T02:32:50.499Z,99.99
2024-03-04T02:33:50.487Z,99.99
2024-03-04T02:34:50.483Z,99.99
2024-03-04T02:35:50.463Z,99.99
2024-03-04T02:36:50.455Z,99.99
2024-03-04T02:37:50.434Z,99.99
2024-03-04T02:38:50.439Z,99.99
2024-03-04T02:39:50.416Z,99.99
2024-03-04T02:40:50.536Z,99.99
2024-03-04T02:41:50.399Z,99.99
2024-03-04T02:42:50.382Z,99.99
2024-03-04T02:43:50.385Z,99.99
2024-03-04T02:44:50.363Z,99.99
2024-03-04T02:45:50.358Z,99.99
2024-03-04T02:46:50.359Z,99.99
2024-03-04T02:47:50.358Z,99.99
2024-03-04T02:48:50.333Z,99.99
2024-03-04T02:49:50.304Z,99.99
2024-03-04T02:50:50.302Z,99.99
2024-03-04T02:51:50.283Z,99.99
2024-03-04T02:52:50.312Z,99.99
2024-03-04T02:53:50.267Z,99.99
2024-03-04T02:54:50.262Z,99.99
2024-03-04T02:55:50.244Z,99.99
2024-03-04T02:56:50.236Z,99.99
2024-03-04T02:57:50.247Z,99.99
2024-03-04T02:58:50.238Z,99.99
2024-03-04T02:59:50.199Z,99.99
2024-03-04T03:00:50.259Z,99.99
2024-03-04T03:01:50.301Z,99.99
2024-03-04T03:02:50.202Z,99.99
2024-03-04T03:03:50.159Z,99.99
2024-03-04T03:04:50.162Z,99.99
2024-03-04T03:05:50.144Z,99.99
2024-03-04T03:06:50.158Z,99.99
2024-03-04T03:07:50.141Z,99.99
2024-03-04T03:08:50.124Z,99.99
2024-03-04T03:09:50.099Z,99.99
2024-03-04T03:10:50.187Z,99.99
2024-03-04T03:11:50.102Z,99.99
2024-03-04T03:12:50.092Z,99.99
2024-03-04T03:13:50.072Z,99.99
2024-03-04T03:14:50.062Z,99.92
2024-03-04T03:15:50.041Z,99.65
2024-03-04T03:16:50.067Z,99.82
2024-03-04T03:17:50.068Z,99.71
2024-03-04T03:18:50.021Z,99.99
2024-03-04T03:19:50.017Z,99.99
2024-03-04T03:20:50.018Z,99.99
2024-03-04T03:21:49.993Z,99.99
2024-03-04T03:22:50.300Z,99.99
2024-03-04T03:23:49.972Z,99.99
2024-03-04T03:24:49.970Z,99.99
2024-03-04T03:25:49.949Z,99.99
2024-03-04T03:26:49.955Z,99.99
2024-03-04T03:27:49.922Z,99.99
2024-03-04T03:28:50.046Z,99.99
2024-03-04T03:29:49.923Z,99.99
2024-03-04T03:30:49.914Z,99.99
2024-03-04T03:31:49.889Z,99.99
2024-03-04T03:32:49.908Z,99.99
2024-03-04T03:33:49.866Z,99.99
2024-03-04T03:34:49.871Z,99.99
2024-03-04T03:35:49.880Z,99.99
2024-03-04T03:36:49.877Z,99.99
2024-03-04T03:37:49.838Z,99.99
2024-03-04T03:38:49.814Z,99.99
2024-03-04T03:39:49.813Z,99.99
2024-03-04T03:40:49.845Z,99.99
2024-03-04T03:41:49.789Z,99.99
2024-03-04T03:42:49.790Z,99.99
2024-03-04T03:43:49.800Z,99.99
2024-03-04T03:44:49.777Z,99.99
2024-03-04T03:45:49.734Z,99.99
2024-03-04T03:46:49.741Z,99.99
2024-03-04T03:47:49.752Z,99.99
2024-03-04T03:48:49.725Z,99.99
2024-03-04T03:49:49.705Z,99.99
2024-03-04T03:50:49.688Z,99.99
2024-03-04T03:51:49.678Z,99.99
2024-03-04T03:52:49.677Z,99.99
2024-03-04T03:53:49.675Z,99.99
2024-03-04T03:54:49.646Z,99.99
2024-03-04T03:55:49.631Z,99.99
2024-03-04T03:56:49.646Z,99.99
2024-03-04T03:57:57.727Z,99.99
2024-03-04T03:58:49.622Z,99.99
2024-03-04T03:59:49.589Z,99.99
2024-03-04T04:00:49.599Z,99.99
2024-03-04T04:01:49.700Z,99.99
2024-03-04T04:02:49.590Z,99.99
2024-03-04T04:03:49.564Z,99.99
2024-03-04T04:04:49.547Z,99.99
2024-03-04T04:05:49.532Z,99.99
2024-03-04T04:06:49.525Z,99.99
2024-03-04T04:07:49.534Z,99.99
2024-03-04T04:08:49.509Z,99.99
2024-03-04T04:09:49.492Z,99.99
2024-03-04T04:10:49.518Z,99.99
2024-03-04T04:11:49.528Z,99.99
2024-03-04T04:12:49.491Z,99.99
2024-03-04T04:13:49.444Z,99.99
2024-03-04T04:14:49.443Z,99.99
2024-03-04T04:15:49.436Z,99.99
2024-03-04T04:16:49.443Z,99.99
2024-03-04T04:17:49.463Z,99.99
2024-03-04T04:18:49.415Z,99.99
2024-03-04T04:19:49.387Z,99.99
2024-03-04T04:20:49.393Z,99.99
2024-03-04T04:21:49.384Z,99.99
2024-03-04T04:22:49.369Z,99.99
2024-03-04T04:23:49.369Z,99.99
2024-03-04T04:24:49.349Z,99.99
2024-03-04T04:25:49.375Z,99.99
2024-03-04T04:26:49.352Z,99.99
2024-03-04T04:27:49.327Z,99.99
2024-03-04T04:28:49.312Z,99.99
2024-03-04T04:29:49.284Z,99.99
2024-03-04T04:30:49.317Z,99.99
2024-03-04T04:31:49.339Z,99.99
2024-03-04T04:32:49.387Z,99.99
2024-03-04T04:33:49.251Z,99.99
2024-03-04T04:34:49.278Z,99.99
2024-03-04T04:35:49.238Z,99.99
2024-03-04T04:36:49.262Z,99.99
2024-03-04T04:37:49.250Z,99.99
2024-03-04T04:38:49.223Z,99.99
2024-03-04T04:39:49.181Z,99.99
2024-03-04T04:40:49.230Z,99.99
2024-03-04T04:41:49.195Z,99.99
2024-03-04T04:42:49.183Z,99.99
2024-03-04T04:43:49.156Z,99.99
2024-03-04T04:44:49.159Z,99.99
2024-03-04T04:45:49.146Z,99.99
2024-03-04T04:46:49.129Z,99.99
2024-03-04T04:47:49.155Z,99.99
2024-03-04T04:48:49.101Z,99.99
2024-03-04T04:49:49.124Z,99.99
2024-03-04T04:50:49.082Z,99.99
2024-03-04T04:51:49.060Z,99.99
2024-03-04T04:52:49.060Z,99.99
2024-03-04T04:53:49.051Z,99.99
2024-03-04T04:54:49.049Z,99.99
2024-03-04T04:55:49.072Z,99.99
2024-03-04T04:56:49.026Z,99.99
2024-03-04T04:57:49.069Z,99.99
2024-03-04T04:58:49.007Z,99.99
2024-03-04T04:59:48.979Z,99.99
2024-03-04T05:00:49.027Z,99.99
2024-03-04T05:01:49.012Z,99.99
2024-03-04T05:02:50.610Z,99.99
2024-03-04T05:04:00.524Z,99.99
2024-03-04T05:04:56.938Z,99.99
2024-03-04T05:05:49.005Z,99.99
2024-03-04T05:06:48.916Z,99.99
2024-03-04T05:07:48.917Z,99.99
2024-03-04T05:08:48.904Z,99.99
2024-03-04T05:09:49.266Z,99.99
2024-03-04T05:10:48.874Z,99.99
2024-03-04T05:11:48.864Z,99.99
2024-03-04T05:12:49.014Z,99.99
2024-03-04T05:13:48.854Z,99.99
2024-03-04T05:14:48.846Z,99.99
2024-03-04T05:15:48.826Z,99.99
2024-03-04T05:16:48.921Z,99.99
2024-03-04T05:17:49.141Z,99.99
2024-03-04T05:18:48.793Z,99.99
2024-03-04T05:19:48.776Z,99.99
2024-03-04T05:20:55.838Z,99.99
2024-03-04T05:21:48.785Z,99.99
2024-03-04T05:22:49.396Z,99.99
2024-03-04T05:23:48.746Z,99.99
2024-03-04T05:24:48.737Z,99.99
2024-03-04T05:25:48.717Z,99.99
2024-03-04T05:26:48.734Z,99.99
2024-03-04T05:27:48.709Z,99.99
2024-03-04T05:28:48.692Z,99.99
2024-03-04T05:29:48.671Z,99.99
2024-03-04T05:30:48.619Z,99.99
2024-03-04T05:31:48.667Z,99.99
2024-03-04T05:32:48.668Z,99.99
2024-03-04T05:33:48.671Z,99.99
2024-03-04T05:34:48.633Z,99.99
2024-03-04T05:35:48.613Z,99.99
2024-03-04T05:36:48.574Z,99.99
2024-03-04T05:37:48.565Z,99.99
2024-03-04T05:38:48.536Z,99.88
2024-03-04T05:39:48.593Z,99.99
2024-03-04T05:40:48.569Z,99.73
2024-03-04T05:41:48.512Z,99.32
2024-03-04T05:42:50.585Z,98.91
2024-03-04T05:43:48.496Z,98.39
2024-03-04T05:44:48.486Z,98.39
2024-03-04T05:45:48.482Z,98.28
2024-03-04T05:46:48.529Z,98.18
2024-03-04T05:47:48.476Z,97.97
2024-03-04T05:48:48.474Z,97.35
2024-03-04T05:49:48.463Z,96.94
2024-03-04T05:50:48.433Z,97.25
2024-03-04T05:51:48.403Z,97.25
2024-03-04T05:52:48.438Z,97.41
2024-03-04T05:53:48.390Z,97.52
2024-03-04T05:54:48.395Z,97.66
2024-03-04T05:55:48.417Z,97.62
2024-03-04T05:56:48.363Z,97.52
2024-03-04T05:57:48.347Z,97.41
2024-03-04T05:58:48.349Z,97.52
2024-03-04T05:59:48.340Z,97.56
2024-03-04T06:00:48.331Z,97.62
2024-03-04T06:01:48.325Z,97.52
2024-03-04T06:02:48.296Z,96.89
2024-03-04T06:03:48.283Z,96.89
2024-03-04T06:04:48.368Z,97.20
2024-03-04T06:05:48.260Z,97.10
2024-03-04T06:06:48.266Z,97.20
2024-03-04T06:07:48.253Z,97.31
2024-03-04T06:08:48.284Z,97.41
2024-03-04T06:09:48.235Z,97.62
2024-03-04T06:10:48.295Z,97.83
2024-03-04T06:11:48.196Z,97.83
2024-03-04T06:12:48.192Z,97.83
2024-03-04T06:13:48.187Z,97.72
2024-03-04T06:14:48.203Z,97.62
2024-03-04T06:15:48.157Z,97.93
2024-03-04T06:16:48.208Z,98.13
2024-03-04T06:17:48.190Z,98.09
2024-03-04T06:18:48.149Z,97.78
2024-03-04T06:19:48.149Z,97.36
2024-03-04T06:20:48.109Z,97.26
2024-03-04T06:21:57.179Z,97.36
2024-03-04T06:22:48.118Z,97.47
2024-03-04T06:23:48.081Z,97.16
2024-03-04T06:24:48.063Z,97.22
2024-03-04T06:25:48.100Z,97.16
2024-03-04T06:26:48.045Z,97.32
2024-03-04T06:27:48.024Z,97.32
2024-03-04T06:28:48.067Z,97.32
2024-03-04T06:29:48.081Z,97.16
2024-03-04T06:30:48.004Z,96.95
2024-03-04T06:31:48.041Z,97.06
2024-03-04T06:32:48.061Z,97.16
2024-03-04T06:33:53.183Z,97.57
2024-03-04T06:34:48.034Z,98.09
2024-03-04T06:35:47.952Z,98.40
2024-03-04T06:36:47.938Z,98.82
2024-03-04T06:37:47.955Z,98.82
2024-03-04T06:38:47.926Z,98.77
2024-03-04T06:39:47.899Z,98.77
2024-03-04T06:40:47.927Z,98.87
2024-03-04T06:41:47.899Z,99.08
2024-03-04T06:42:47.894Z,99.18
2024-03-04T06:43:47.901Z,99.08
2024-03-04T06:44:47.858Z,99.18
2024-03-04T06:45:47.836Z,99.18
2024-03-04T06:46:47.877Z,99.24
2024-03-04T06:47:47.878Z,99.44
2024-03-04T06:48:47.815Z,99.04
2024-03-04T06:49:47.834Z,99.14
2024-03-04T06:50:47.827Z,98.88
2024-03-04T06:51:48.066Z,98.99
2024-03-04T06:52:47.846Z,98.88
2024-03-04T06:53:47.757Z,98.88
2024-03-04T06:54:47.755Z,98.78
2024-03-04T06:55:47.821Z,98.47
2024-03-04T06:56:47.773Z,98.32
2024-03-04T06:57:47.723Z,98.11
2024-03-04T06:58:47.703Z,98.01
2024-03-04T06:59:47.698Z,97.19
2024-03-04T07:00:47.720Z,96.88
2024-03-04T07:01:47.784Z,96.98
2024-03-04T07:02:47.659Z,96.47
2024-03-04T07:03:47.665Z,96.47
2024-03-04T07:04:47.707Z,96.36
2024-03-04T07:05:47.661Z,95.95
2024-03-04T07:06:47.615Z,95.95
2024-03-04T07:07:47.670Z,96.01
2024-03-04T07:08:47.595Z,95.70
2024-03-04T07:09:47.724Z,95.80
2024-03-04T07:10:47.661Z,95.43
2024-03-04T07:11:47.569Z,95.32
2024-03-04T07:12:47.614Z,95.28
2024-03-04T07:13:47.613Z,95.49
2024-03-04T07:14:47.553Z,95.49
2024-03-04T07:15:47.523Z,95.64
2024-03-04T07:16:47.539Z,96.11
2024-03-04T07:17:47.516Z,95.28
2024-03-04T07:18:47.495Z,95.07
2024-03-04T07:19:47.580Z,94.87
2024-03-04T07:20:47.465Z,94.77
2024-03-04T07:21:47.480Z,94.97
2024-03-04T07:22:47.520Z,94.77
2024-03-04T07:23:47.458Z,94.35
2024-03-04T07:24:47.446Z,94.25
2024-03-04T07:25:47.426Z,94.15
2024-03-04T07:26:47.405Z,94.00
2024-03-04T07:27:47.396Z,93.79
2024-03-04T07:28:47.432Z,93.79
2024-03-04T07:29:52.805Z,94.15
2024-03-04T07:30:47.371Z,94.25
2024-03-04T07:31:47.426Z,94.15
2024-03-04T07:32:47.423Z,94.52
2024-03-04T07:33:47.352Z,94.62
2024-03-04T07:34:47.356Z,94.62
2024-03-04T07:35:47.314Z,94.42
2024-03-04T07:36:47.291Z,94.00
2024-03-04T07:37:47.358Z,93.59
2024-03-04T07:38:47.302Z,93.59
2024-03-04T07:39:47.291Z,93.28
2024-03-04T07:40:47.268Z,93.03
2024-03-04T07:41:47.258Z,92.93
2024-03-04T07:42:47.271Z,93.13
2024-03-04T07:43:47.305Z,93.03
2024-03-04T07:44:47.220Z,92.93
2024-03-04T07:45:47.224Z,92.61
2024-03-04T07:46:47.288Z,92.72
2024-03-04T07:47:47.222Z,92.82
2024-03-04T07:48:47.195Z,92.82
2024-03-04T07:49:47.216Z,93.34
2024-03-04T07:50:47.154Z,93.44
2024-03-04T07:51:47.155Z,92.93
2024-03-04T07:52:47.184Z,92.82
2024-03-04T07:53:47.147Z,92.37
2024-03-04T07:54:47.113Z,92.57
2024-03-04T07:55:47.157Z,92.68
2024-03-04T07:56:47.091Z,92.27
2024-03-04T07:57:47.107Z,92.37
2024-03-04T07:58:47.078Z,92.47
2024-03-04T07:59:47.078Z,92.06
2024-03-04T08:00:47.067Z,91.96
2024-03-04T08:01:47.123Z,92.37
2024-03-04T08:02:47.047Z,92.27
2024-03-04T08:03:47.023Z,92.12
2024-03-04T08:04:47.147Z,92.02
2024-03-04T08:05:46.999Z,92.02
2024-03-04T08:06:47.013Z,91.91
2024-03-04T08:07:47.067Z,92.02
2024-03-04T08:08:46.972Z,92.33
2024-03-04T08:09:46.972Z,92.22
2024-03-04T08:10:47.029Z,91.71
2024-03-04T08:11:47.001Z,91.50
2024-03-04T08:12:46.959Z,91.30
2024-03-04T08:13:46.956Z,91.71
2024-03-04T08:14:46.901Z,91.71
2024-03-04T08:15:46.910Z,91.09
2024-03-04T08:16:46.931Z,91.71
2024-03-04T08:17:54.826Z,91.71
2024-03-04T08:18:46.864Z,91.91
2024-03-04T08:19:46.931Z,91.05
2024-03-04T08:20:47.492Z,90.84
2024-03-04T08:21:46.869Z,90.73
2024-03-04T08:22:46.976Z,90.94
2024-03-04T08:23:46.815Z,91.15
2024-03-04T08:24:46.798Z,90.94
2024-03-04T08:25:46.838Z,90.94
2024-03-04T08:26:46.784Z,90.73
2024-03-04T08:27:46.773Z,90.84
2024-03-04T08:28:46.766Z,90.64
2024-03-04T08:29:46.772Z,90.43
2024-03-04T08:30:46.777Z,90.33
2024-03-04T08:31:46.741Z,89.67
2024-03-04T08:32:46.751Z,90.08
2024-03-04T08:33:46.711Z,90.39
2024-03-04T08:34:47.045Z,90.08
2024-03-04T08:35:46.692Z,90.08
2024-03-04T08:36:46.697Z,89.97
2024-03-04T08:37:46.721Z,90.08
2024-03-04T08:38:46.654Z,89.97
2024-03-04T08:39:46.679Z,90.08
2024-03-04T08:40:46.723Z,90.08
2024-03-04T08:41:46.820Z,89.77
2024-03-04T08:42:46.624Z,89.62
2024-03-04T08:43:46.750Z,89.73
2024-03-04T08:44:46.602Z,89.01
2024-03-04T08:45:46.592Z,89.25
2024-03-04T08:46:46.714Z,89.15
2024-03-04T08:47:46.626Z,89.36
2024-03-04T08:48:46.563Z,89.56
2024-03-04T08:49:46.604Z,89.67
2024-03-04T08:50:46.528Z,90.08
2024-03-04T08:51:46.525Z,90.90
2024-03-04T08:52:46.688Z,90.90
2024-03-04T08:53:46.537Z,90.08
2024-03-04T08:54:46.485Z,90.03
2024-03-04T08:55:46.552Z,90.03
2024-03-04T08:56:46.470Z,89.73
2024-03-04T08:57:46.480Z,89.52
2024-03-04T08:58:46.527Z,89.52
2024-03-04T08:59:46.438Z,89.52
2024-03-04T09:00:46.452Z,89.52
2024-03-04T09:01:46.507Z,89.42
2024-03-04T09:02:46.422Z,89.94
2024-03-04T09:03:46.398Z,89.83
2024-03-04T09:04:46.518Z,88.86
2024-03-04T09:05:46.380Z,89.22
2024-03-04T09:06:46.363Z,89.48
2024-03-04T09:07:46.441Z,89.38
2024-03-04T09:08:46.349Z,89.48
2024-03-04T09:09:46.336Z,89.79
2024-03-04T09:10:46.386Z,88.35
2024-03-04T09:11:46.373Z,88.56
2024-03-04T09:12:46.308Z,88.51
2024-03-04T09:13:46.361Z,88.72
2024-03-04T09:14:46.286Z,88.72
2024-03-04T09:15:46.278Z,88.10
2024-03-04T09:16:46.303Z,88.20
2024-03-04T09:17:46.308Z,88.41
2024-03-04T09:18:46.243Z,88.41
2024-03-04T09:19:46.278Z,88.62
2024-03-04T09:20:46.221Z,88.82
2024-03-04T09:21:46.244Z,89.23
2024-03-04T09:22:46.233Z,89.44
2024-03-04T09:23:46.201Z,90.42
2024-03-04T09:24:46.170Z,91.45
2024-03-04T09:25:46.206Z,93.40
2024-03-04T09:26:46.204Z,94.59
2024-03-04T09:27:46.153Z,95.21
2024-03-04T09:28:46.205Z,95.72
2024-03-04T09:29:46.125Z,95.93
2024-03-04T09:30:46.126Z,96.23
2024-03-04T09:31:46.190Z,95.98
2024-03-04T09:32:46.116Z,95.89
2024-03-04T09:33:46.103Z,95.57
2024-03-04T09:34:46.109Z,95.37
2024-03-04T09:35:46.093Z,95.37
2024-03-04T09:36:46.045Z,95.17
2024-03-04T09:37:46.176Z,95.47
2024-03-04T09:38:46.056Z,95.37
2024-03-04T09:39:46.034Z,95.47
2024-03-04T09:40:46.193Z,95.06
2024-03-04T09:41:46.003Z,94.96
2024-03-04T09:42:45.980Z,95.17
2024-03-04T09:43:46.033Z,95.27
2024-03-04T09:44:45.979Z,95.17
2024-03-04T09:45:45.958Z,95.37
2024-03-04T09:46:45.973Z,95.47
2024-03-04T09:47:45.948Z,95.57
2024-03-04T09:48:45.924Z,95.23
2024-03-04T09:49:46.018Z,95.12
2024-03-04T09:50:45.905Z,94.81
2024-03-04T09:51:45.894Z,94.51
2024-03-04T09:52:45.918Z,94.85
2024-03-04T09:53:45.878Z,94.96
2024-03-04T09:54:46.325Z,95.37
2024-03-04T09:55:45.971Z,95.57
2024-03-04T09:56:45.837Z,95.68
2024-03-04T09:57:45.833Z,95.57
2024-03-04T09:58:45.952Z,95.32
2024-03-04T09:59:45.833Z,95.06
2024-03-04T10:00:45.808Z,95.17
2024-03-04T10:01:45.954Z,94.92
2024-03-04T10:02:45.827Z,94.51
2024-03-04T10:03:45.797Z,94.65
2024-03-04T10:04:45.787Z,94.96
2024-03-04T10:05:45.746Z,94.81
2024-03-04T10:06:46.081Z,94.71
2024-03-04T10:07:45.750Z,94.40
2024-03-04T10:08:45.730Z,93.89
2024-03-04T10:09:45.705Z,93.99
2024-03-04T10:10:45.803Z,94.51
2024-03-04T10:11:45.999Z,94.61
2024-03-04T10:12:45.692Z,94.61
2024-03-04T10:13:45.835Z,93.48
2024-03-04T10:14:45.649Z,93.59
2024-03-04T10:15:45.651Z,93.99
2024-03-04T10:16:45.740Z,93.89
2024-03-04T10:17:45.705Z,93.79
2024-03-04T10:18:45.622Z,94.34
2024-03-04T10:19:45.706Z,94.51
2024-03-04T10:20:45.624Z,94.71
2024-03-04T10:21:45.618Z,94.61
2024-03-04T10:22:45.623Z,94.36
2024-03-04T10:23:45.563Z,93.54
2024-03-04T10:24:45.555Z,93.54
2024-03-04T10:25:45.618Z,93.13
2024-03-04T10:26:45.609Z,92.82
2024-03-04T10:27:45.534Z,92.61
2024-03-04T10:28:45.584Z,93.02
2024-03-04T10:29:45.501Z,93.17
2024-03-04T10:30:45.550Z,93.07
2024-03-04T10:31:45.563Z,93.44
2024-03-04T10:32:45.516Z,93.33
2024-03-04T10:33:45.470Z,93.02
2024-03-04T10:34:45.483Z,93.64
2024-03-04T10:35:45.451Z,93.33
2024-03-04T10:36:45.436Z,92.93
2024-03-04T10:37:45.442Z,92.82
2024-03-04T10:38:45.411Z,93.33
2024-03-04T10:39:45.416Z,93.23
2024-03-04T10:40:45.470Z,92.82
2024-03-04T10:41:45.396Z,92.82
2024-03-04T10:42:45.358Z,92.61
2024-03-04T10:43:45.424Z,93.02
2024-03-04T10:44:45.342Z,92.57
2024-03-04T10:45:45.354Z,92.57
2024-03-04T10:46:45.331Z,92.47
2024-03-04T10:47:45.347Z,92.02
2024-03-04T10:48:45.630Z,91.55
2024-03-04T10:49:45.358Z,90.22
2024-03-04T10:50:45.298Z,90.73
2024-03-04T10:51:51.848Z,90.93
2024-03-04T10:52:45.349Z,90.62
2024-03-04T10:53:45.266Z,90.73
2024-03-04T10:54:45.267Z,90.48
2024-03-04T10:55:45.277Z,90.37
2024-03-04T10:56:45.211Z,90.17
2024-03-04T10:57:45.228Z,90.58
2024-03-04T10:58:45.321Z,89.83
2024-03-04T10:59:45.209Z,90.03
2024-03-04T11:00:45.177Z,89.42
2024-03-04T11:01:45.431Z,89.21
2024-03-04T11:02:45.149Z,89.15
2024-03-04T11:03:45.147Z,89.45
2024-03-04T11:04:45.983Z,90.17
2024-03-04T11:05:45.127Z,90.32
2024-03-04T11:06:45.120Z,90.52
2024-03-04T11:07:45.595Z,91.08
2024-03-04T11:08:45.123Z,91.18
2024-03-04T11:09:45.148Z,91.69
2024-03-04T11:10:45.219Z,91.69
2024-03-04T11:11:45.076Z,92.10
2024-03-04T11:12:45.049Z,90.97
2024-03-04T11:13:45.152Z,91.49
2024-03-04T11:14:45.038Z,91.59
2024-03-04T11:15:45.026Z,91.59
2024-03-04T11:16:47.040Z,91.44
2024-03-04T11:17:45.039Z,91.03
2024-03-04T11:18:45.004Z,91.03
2024-03-04T11:19:45.492Z,90.93
2024-03-04T11:20:44.968Z,91.03
2024-03-04T11:21:44.952Z,91.35
2024-03-04T11:22:45.337Z,91.35
2024-03-04T11:23:44.955Z,91.14
2024-03-04T11:24:44.926Z,91.35
2024-03-04T11:25:45.047Z,91.55
2024-03-04T11:26:44.904Z,91.14
2024-03-04T11:27:44.912Z,91.24
2024-03-04T11:28:44.959Z,91.14
2024-03-04T11:29:44.872Z,91.03
2024-03-04T11:30:44.865Z,91.14
2024-03-04T11:31:44.949Z,90.83
2024-03-04T11:32:44.919Z,91.24
2024-03-04T11:33:44.828Z,91.44
2024-03-04T11:34:45.192Z,90.79
2024-03-04T11:35:44.866Z,90.42
2024-03-04T11:36:44.884Z,90.52
2024-03-04T11:37:45.252Z,91.44
2024-03-04T11:38:44.860Z,91.14
2024-03-04T11:39:44.784Z,91.44
2024-03-04T11:40:44.879Z,91.55
2024-03-04T11:41:44.830Z,91.86
2024-03-04T11:42:44.734Z,92.06
2024-03-04T11:43:44.992Z,91.14
2024-03-04T11:44:44.731Z,91.03
2024-03-04T11:45:44.754Z,91.24
2024-03-04T11:46:44.789Z,91.09
2024-03-04T11:47:44.729Z,90.93
2024-03-04T11:48:44.687Z,90.79
2024-03-04T11:49:44.757Z,90.89
2024-03-04T11:50:44.663Z,90.28
2024-03-04T11:51:44.687Z,90.17
2024-03-04T11:52:44.677Z,90.13
2024-03-04T11:53:44.623Z,90.37
2024-03-04T11:54:44.654Z,90.23
2024-03-04T11:55:44.680Z,89.87
2024-03-04T11:56:44.617Z,89.66
2024-03-04T11:57:44.588Z,90.22
2024-03-04T11:58:44.652Z,90.83
2024-03-04T11:59:44.553Z,90.93
2024-03-04T12:00:44.592Z,91.03
2024-03-04T12:01:44.621Z,90.93
2024-03-04T12:02:44.604Z,91.03
2024-03-04T12:03:44.511Z,91.14
2024-03-04T12:04:44.575Z,91.20
2024-03-04T12:05:44.518Z,91.20
2024-03-04T12:06:44.489Z,91.09
2024-03-04T12:07:44.512Z,90.69
2024-03-04T12:08:59.532Z,90.58
2024-03-04T12:09:57.142Z,90.79
2024-03-04T12:10:44.541Z,90.93
2024-03-04T12:11:44.474Z,91.14
2024-03-04T12:12:44.647Z,91.35
2024-03-04T12:13:44.484Z,91.55
2024-03-04T12:14:44.417Z,90.93
2024-03-04T12:15:44.382Z,91.24
2024-03-04T12:16:44.425Z,91.30
2024-03-04T12:17:44.398Z,90.89
2024-03-04T12:18:44.365Z,90.69
2024-03-04T12:19:44.457Z,90.79
2024-03-04T12:20:44.352Z,90.89
2024-03-04T12:21:44.325Z,90.58
2024-03-04T12:22:44.333Z,90.69
2024-03-04T12:23:44.312Z,89.87
2024-03-04T12:24:44.315Z,90.28
2024-03-04T12:25:44.342Z,90.42
2024-03-04T12:26:44.274Z,90.93
2024-03-04T12:27:44.258Z,90.93
2024-03-04T12:28:44.496Z,91.20
2024-03-04T12:29:44.248Z,90.99
2024-03-04T12:30:44.247Z,90.69
2024-03-04T12:31:44.220Z,90.37
2024-03-04T12:32:44.283Z,89.72
2024-03-04T12:33:44.216Z,89.97
2024-03-04T12:34:44.205Z,89.36
2024-03-04T12:35:44.172Z,89.87
2024-03-04T12:36:44.166Z,89.56
2024-03-04T12:37:44.168Z,90.07
2024-03-04T12:38:44.163Z,90.13
2024-03-04T12:39:44.135Z,90.03
2024-03-04T12:40:44.148Z,89.83
2024-03-04T12:41:44.126Z,89.37
2024-03-04T12:42:44.101Z,89.37
2024-03-04T12:43:44.207Z,89.37
2024-03-04T12:44:44.087Z,89.47
2024-03-04T12:45:44.076Z,88.76
2024-03-04T12:46:44.183Z,88.65
2024-03-04T12:47:44.091Z,87.73
2024-03-04T12:48:44.053Z,87.63
2024-03-04T12:49:44.035Z,88.04
2024-03-04T12:50:44.027Z,87.67
2024-03-04T12:51:44.055Z,88.18
2024-03-04T12:52:44.026Z,89.31